Time;durP1;ratioP1;P1;durP2;ratioP2;P2;SDS_P1;SDS_P2;PMS_P1;PMS_P2;Temp;Humidity;BMP_temperature;BMP_pressure;BME280_temperature;BME280_humidity;BME280_pressure;Samples;Min_cycle;Max_cycle;Signal;HPM_P1;HPM_P2
2024/03/23 00:03:26;;;;;;;;;;;;;;;10.54;86.65;99647.66;109966;1287;22499;-86
2024/03/23 00:06:15;;;;;;;;;;;;;;;10.56;86.96;99637.46;109960;1287;22327;-86
2024/03/23 00:09:04;;;;;;;;;;;;;;;10.55;87.32;99630.71;110023;1287;22362;-86
2024/03/23 00:11:53;;;;;;;;;;;;;;;10.51;87.20;99631.44;109962;1286;23093;-86
2024/03/23 00:14:42;;;;;;;;;;;;;;;10.49;87.50;99625.22;109968;1287;22359;-86
2024/03/23 00:17:30;;;;;;;;;;;;;;;10.47;87.60;99618.05;109917;1287;22473;-85
2024/03/23 00:20:19;;;;;;;;;;;;;;;10.47;87.73;99601.55;109949;1287;23158;-87
2024/03/23 00:23:08;;;;;;;;;;;;;;;10.47;87.70;99593.34;109941;1287;22300;-87
2024/03/23 00:25:58;;;;;;;;;;;;;;;10.44;88.01;99590.41;109951;1286;22327;-87
2024/03/23 00:28:47;;;;;;;;;;;;;;;10.40;88.10;99581.56;109935;1287;22397;-86
2024/03/23 00:31:36;;;;;;;;;;;;;;;10.37;88.14;99577.69;109926;1287;22434;-86
2024/03/23 00:34:26;;;;;;;;;;;;;;;10.36;88.22;99567.02;109958;1287;22393;-87
2024/03/23 00:37:16;;;;;;;;;;;;;;;10.35;88.56;99567.58;109899;1287;23261;-86
2024/03/23 00:40:05;;;;;;;;;;;;;;;10.33;88.55;99560.96;109975;1281;22308;-87
2024/03/23 00:42:55;;;;;;;;;;;;;;;10.32;88.86;99560.48;109904;1287;22504;-87
2024/03/23 00:45:44;;;;;;;;;;;;;;;10.30;88.96;99562.15;109941;1287;22363;-86
2024/03/23 00:48:34;;;;;;;;;;;;;;;10.30;88.98;99556.41;109957;1287;22373;-87
2024/03/23 00:51:23;;;;;;;;;;;;;;;10.29;89.15;99553.35;109949;1287;23168;-86
2024/03/23 00:54:13;;;;;;;;;;;;;;;10.26;89.12;99551.05;110002;1286;23091;-88
2024/03/23 00:57:02;;;;;;;;;;;;;;;10.24;89.22;99543.71;109983;1287;22471;-87
2024/03/23 00:59:51;;;;;;;;;;;;;;;10.22;89.26;99544.61;109950;1284;23103;-87
2024/03/23 01:02:41;;;;;;;;;;;;;;;10.21;89.22;99538.36;109921;1283;22541;-87
2024/03/23 01:05:30;;;;;;;;;;;;;;;10.21;89.41;99532.89;109961;1287;23066;-87
2024/03/23 01:08:20;;;;;;;;;;;;;;;10.21;89.36;99528.23;109968;1287;22379;-86
2024/03/23 01:11:11;;;;;;;;;;;;;;;10.20;89.63;99523.70;109946;1284;22343;-88
2024/03/23 01:14:02;;;;;;;;;;;;;;;10.17;89.54;99526.98;109982;1287;22886;-88
2024/03/23 01:16:53;;;;;;;;;;;;;;;10.18;89.42;99521.95;109945;1284;22377;-88
2024/03/23 01:19:42;;;;;;;;;;;;;;;10.18;89.44;99518.10;109948;1287;22335;-88
2024/03/23 01:22:32;;;;;;;;;;;;;;;10.18;89.46;99510.60;109858;1287;22398;-88
2024/03/23 01:25:21;;;;;;;;;;;;;;;10.20;89.72;99505.30;109879;1287;22363;-88
2024/03/23 01:28:12;;;;;;;;;;;;;;;10.21;89.65;99498.39;109895;1287;22317;-87
2024/03/23 01:31:05;;;;;;;;;;;;;;;10.21;89.64;99502.86;109918;1287;22381;-86
2024/03/23 01:33:54;;;;;;;;;;;;;;;10.20;89.60;99496.73;109940;1279;22428;-89
2024/03/23 01:36:46;;;;;;;;;;;;;;;10.21;89.54;99486.44;109758;1283;23026;-88
2024/03/23 01:39:35;;;;;;;;;;;;;;;10.20;89.65;99480.44;109954;1281;22363;-88
2024/03/23 01:42:25;;;;;;;;;;;;;;;10.19;89.47;99471.41;109958;1287;22457;-87
2024/03/23 01:45:16;;;;;;;;;;;;;;;10.20;89.52;99469.79;109972;1286;22399;-88
2024/03/23 01:48:07;;;;;;;;;;;;;;;10.20;89.45;99461.27;109956;1283;22323;-89
2024/03/23 01:50:56;;;;;;;;;;;;;;;10.16;89.33;99454.89;109923;1287;23115;-87
2024/03/23 01:53:45;;;;;;;;;;;;;;;10.11;89.45;99447.91;110017;1286;22377;-87
2024/03/23 01:56:35;;;;;;;;;;;;;;;10.09;89.34;99445.63;109946;1287;22364;-88
2024/03/23 01:59:25;;;;;;;;;;;;;;;10.04;89.47;99440.78;109956;1284;22395;-87
2024/03/23 02:02:17;;;;;;;;;;;;;;;10.00;89.56;99434.86;109888;1288;23094;-88
2024/03/23 02:05:09;;;;;;;;;;;;;;;9.95;89.57;99430.95;109857;1287;22385;-88
2024/03/23 02:07:59;;;;;;;;;;;;;;;9.90;89.85;99424.19;109940;1287;22308;-88
2024/03/23 02:10:54;;;;;;;;;;;;;;;9.84;89.82;99423.27;109937;1279;22478;-88
2024/03/23 02:13:49;;;;;;;;;;;;;;;9.82;89.85;99419.56;109937;1284;22387;-88
2024/03/23 02:16:37;;;;;;;;;;;;;;;9.83;90.01;99416.06;109939;1280;22396;-89
2024/03/23 02:19:27;;;;;;;;;;;;;;;9.81;89.96;99412.00;109868;1285;22396;-87
2024/03/23 02:22:17;;;;;;;;;;;;;;;9.82;89.83;99409.77;109942;1279;22389;-89
2024/03/23 02:25:08;;;;;;;;;;;;;;;9.83;90.10;99406.64;109910;1286;22378;-87
2024/03/23 02:28:00;;;;;;;;;;;;;;;9.81;89.97;99403.13;109992;1284;22463;-87
2024/03/23 02:30:51;;;;;;;;;;;;;;;9.80;90.00;99398.77;109903;1287;22391;-88
2024/03/23 02:33:40;;;;;;;;;;;;;;;9.80;90.18;99385.84;109926;1287;22353;-89
2024/03/23 02:36:31;;;;;;;;;;;;;;;9.78;90.17;99389.63;109969;1286;23254;-89
2024/03/23 02:39:21;;;;;;;;;;;;;;;9.76;90.23;99379.63;109940;1280;22411;-88
2024/03/23 02:42:11;;;;;;;;;;;;;;;9.77;90.46;99373.70;109902;1280;22434;-89
2024/03/23 02:45:02;;;;;;;;;;;;;;;9.75;90.25;99369.36;109885;1287;22308;-88
2024/03/23 02:47:52;;;;;;;;;;;;;;;9.74;90.18;99371.94;109923;1287;22381;-89
2024/03/23 02:50:42;;;;;;;;;;;;;;;9.75;90.17;99370.33;109910;1287;22340;-89
2024/03/23 02:53:33;;;;;;;;;;;;;;;9.74;90.35;99367.48;109757;1287;22430;-88
2024/03/23 02:56:24;;;;;;;;;;;;;;;9.75;90.08;99367.59;110025;1286;22408;-89
2024/03/23 02:59:14;;;;;;;;;;;;;;;9.75;90.26;99362.11;110043;1286;22389;-89
2024/03/23 03:02:06;;;;;;;;;;;;;;;9.76;90.32;99358.55;109970;1284;23163;-89
2024/03/23 03:04:55;;;;;;;;;;;;;;;9.77;90.35;99356.97;109939;1281;22372;-89
2024/03/23 03:07:45;;;;;;;;;;;;;;;9.76;90.22;99346.89;109922;1287;23217;-89
2024/03/23 03:10:36;;;;;;;;;;;;;;;9.77;90.32;99340.65;109879;1286;22656;-89
2024/03/23 03:13:26;;;;;;;;;;;;;;;9.76;90.31;99330.88;109869;1283;23203;-89
2024/03/23 03:16:15;;;;;;;;;;;;;;;9.78;90.40;99329.27;109955;1269;22364;-88
2024/03/23 03:19:06;;;;;;;;;;;;;;;9.79;90.48;99330.94;109956;1279;22367;-88
2024/03/23 03:21:55;;;;;;;;;;;;;;;9.79;90.55;99331.39;109936;1279;22359;-88
2024/03/23 03:24:45;;;;;;;;;;;;;;;9.79;90.47;99325.67;109931;1286;22399;-88
2024/03/23 03:27:35;;;;;;;;;;;;;;;9.79;90.65;99324.30;109953;1287;23048;-90
2024/03/23 03:30:24;;;;;;;;;;;;;;;9.81;90.49;99323.50;109938;1277;22355;-89
2024/03/23 03:33:14;;;;;;;;;;;;;;;9.82;90.56;99319.96;109942;1283;23273;-88
2024/03/23 03:36:03;;;;;;;;;;;;;;;9.85;90.56;99321.20;109679;1287;23234;-90
2024/03/23 03:38:55;;;;;;;;;;;;;;;9.87;90.52;99312.85;109878;1287;23468;-89
2024/03/23 03:41:45;;;;;;;;;;;;;;;9.85;90.60;99307.77;109874;1287;22346;-90
2024/03/23 03:44:36;;;;;;;;;;;;;;;9.83;90.57;99301.37;109933;1287;22427;-89
2024/03/23 03:47:26;;;;;;;;;;;;;;;9.84;90.48;99300.96;109953;1286;22383;-89
2024/03/23 03:50:16;;;;;;;;;;;;;;;9.84;90.52;99295.50;109934;1287;23158;-89
2024/03/23 03:53:06;;;;;;;;;;;;;;;9.84;90.48;99296.21;109960;1286;22363;-87
2024/03/23 03:55:57;;;;;;;;;;;;;;;9.84;90.62;99299.45;109933;1287;22441;-89
2024/03/23 03:58:46;;;;;;;;;;;;;;;9.84;90.58;99292.56;109863;1287;22450;-89
2024/03/23 04:01:35;;;;;;;;;;;;;;;9.85;90.55;99287.55;109994;1287;22439;-88
2024/03/23 04:04:26;;;;;;;;;;;;;;;9.85;90.53;99281.27;109977;1286;23260;-88
2024/03/23 04:07:18;;;;;;;;;;;;;;;9.84;90.57;99273.90;109972;1279;23141;-89
2024/03/23 04:10:08;;;;;;;;;;;;;;;9.84;90.44;99274.41;110043;1278;23158;-89
2024/03/23 04:12:58;;;;;;;;;;;;;;;9.86;90.62;99269.55;110047;1285;22896;-88
2024/03/23 04:15:48;;;;;;;;;;;;;;;9.87;90.61;99278.02;109989;1285;23087;-89
2024/03/23 04:18:40;;;;;;;;;;;;;;;9.87;90.68;99274.64;110070;1280;22380;-89
2024/03/23 04:21:29;;;;;;;;;;;;;;;9.85;90.70;99282.98;109982;1283;22440;-89
2024/03/23 04:24:20;;;;;;;;;;;;;;;9.83;90.71;99280.18;109986;1280;23427;-89
2024/03/23 04:27:13;;;;;;;;;;;;;;;9.82;90.74;99280.84;110011;1280;22376;-89
2024/03/23 04:30:09;;;;;;;;;;;;;;;9.83;90.72;99277.49;109984;1280;22354;-90
2024/03/23 04:33:00;;;;;;;;;;;;;;;9.82;90.72;99282.61;110008;1286;22306;-90
2024/03/23 04:35:51;;;;;;;;;;;;;;;9.84;90.61;99283.69;109956;1286;23235;-84
2024/03/23 04:38:41;;;;;;;;;;;;;;;9.85;90.79;99279.48;109951;1287;23093;-83
2024/03/23 04:41:30;;;;;;;;;;;;;;;9.85;90.40;99276.04;110002;1286;23100;-83
2024/03/23 04:44:18;;;;;;;;;;;;;;;9.85;90.70;99280.60;109975;1286;22494;-83
2024/03/23 04:47:07;;;;;;;;;;;;;;;9.85;90.73;99276.55;110010;1283;22371;-83
2024/03/23 04:49:56;;;;;;;;;;;;;;;9.85;90.46;99273.41;110011;1280;23166;-83
2024/03/23 04:52:45;;;;;;;;;;;;;;;9.86;90.37;99276.05;110053;1280;22549;-83
2024/03/23 04:55:34;;;;;;;;;;;;;;;9.85;90.28;99271.53;110058;1285;22426;-83
2024/03/23 04:58:23;;;;;;;;;;;;;;;9.85;90.28;99272.64;110041;1283;22366;-83
2024/03/23 05:01:11;;;;;;;;;;;;;;;9.85;90.09;99273.36;110016;1283;22367;-83
2024/03/23 05:04:01;;;;;;;;;;;;;;;9.84;90.11;99271.16;110026;1280;23307;-83
2024/03/23 05:06:50;;;;;;;;;;;;;;;9.82;89.97;99267.05;110079;1285;23286;-83
2024/03/23 05:09:39;;;;;;;;;;;;;;;9.81;89.90;99258.48;110022;1283;22438;-84
2024/03/23 05:12:27;;;;;;;;;;;;;;;9.79;89.83;99254.81;110074;1285;22401;-83
2024/03/23 05:15:16;;;;;;;;;;;;;;;9.78;89.93;99249.09;110023;1280;22396;-83
2024/03/23 05:18:06;;;;;;;;;;;;;;;9.76;89.68;99249.13;110113;1285;22450;-83
2024/03/23 05:20:58;;;;;;;;;;;;;;;9.73;89.98;99240.73;109965;1287;22353;-83
2024/03/23 05:23:47;;;;;;;;;;;;;;;9.72;90.00;99240.54;109953;1287;22280;-83
2024/03/23 05:26:36;;;;;;;;;;;;;;;9.70;90.16;99238.95;109929;1286;22816;-83
2024/03/23 05:29:24;;;;;;;;;;;;;;;9.70;90.26;99242.55;110010;1280;22427;-83
2024/03/23 05:32:13;;;;;;;;;;;;;;;9.69;90.31;99245.44;110029;1285;22542;-82
2024/03/23 05:35:02;;;;;;;;;;;;;;;9.67;90.38;99241.97;109903;1286;22472;-82
2024/03/23 05:37:51;;;;;;;;;;;;;;;9.67;90.43;99234.67;110013;1286;23176;-83
2024/03/23 05:40:40;;;;;;;;;;;;;;;9.66;90.42;99227.08;110060;1278;22342;-83
2024/03/23 05:43:29;;;;;;;;;;;;;;;9.65;90.57;99223.37;110097;1280;22454;-84
2024/03/23 05:46:18;;;;;;;;;;;;;;;9.65;90.73;99224.44;110095;1278;22381;-81
2024/03/23 05:49:07;;;;;;;;;;;;;;;9.64;90.76;99219.86;110071;1283;23116;-82
2024/03/23 05:51:56;;;;;;;;;;;;;;;9.65;90.76;99217.64;110053;1281;23227;-82
2024/03/23 05:54:44;;;;;;;;;;;;;;;9.65;90.89;99214.15;110037;1286;22400;-82
2024/03/23 05:57:33;;;;;;;;;;;;;;;9.64;91.06;99213.48;109918;1283;137362;-82
2024/03/23 06:00:22;;;;;;;;;;;;;;;9.66;91.28;99208.33;110069;1284;22429;-82
2024/03/23 06:03:11;;;;;;;;;;;;;;;9.66;91.34;99205.52;110022;1280;22359;-82
2024/03/23 06:06:00;;;;;;;;;;;;;;;9.67;91.44;99208.88;110020;1286;22307;-82
2024/03/23 06:08:48;;;;;;;;;;;;;;;9.68;91.59;99207.16;109938;1287;22945;-82
2024/03/23 06:11:37;;;;;;;;;;;;;;;9.71;91.77;99206.77;109940;1287;22373;-82
2024/03/23 06:14:26;;;;;;;;;;;;;;;9.74;91.95;99197.33;110000;1283;22390;-82
2024/03/23 06:17:14;;;;;;;;;;;;;;;9.77;91.91;99189.23;110066;1283;22412;-82
2024/03/23 06:20:04;;;;;;;;;;;;;;;9.81;91.94;99192.34;110041;1283;22374;-83
2024/03/23 06:22:53;;;;;;;;;;;;;;;9.85;91.82;99200.67;110011;1284;22468;-83
2024/03/23 06:25:41;;;;;;;;;;;;;;;9.88;92.37;99205.96;109994;1286;23053;-83
2024/03/23 06:28:30;;;;;;;;;;;;;;;9.93;92.53;99213.94;110026;1283;22488;-82
2024/03/23 06:31:19;;;;;;;;;;;;;;;9.97;92.66;99215.95;110039;1278;22389;-81
2024/03/23 06:34:08;;;;;;;;;;;;;;;10.01;92.70;99219.20;109954;1286;23250;-82
2024/03/23 06:36:57;;;;;;;;;;;;;;;10.03;92.70;99221.45;110009;1283;22403;-82
2024/03/23 06:39:46;;;;;;;;;;;;;;;10.05;92.45;99218.77;110017;1286;22348;-82
2024/03/23 06:42:35;;;;;;;;;;;;;;;10.09;92.38;99204.23;109970;1280;23056;-82
2024/03/23 06:45:24;;;;;;;;;;;;;;;10.14;92.63;99195.41;109942;1279;22387;-82
2024/03/23 06:48:13;;;;;;;;;;;;;;;10.18;92.42;99168.70;110002;1286;22389;-82
2024/03/23 06:51:02;;;;;;;;;;;;;;;10.20;92.67;99161.00;110044;1286;23202;-81
2024/03/23 06:53:51;;;;;;;;;;;;;;;10.23;92.79;99155.08;109942;1284;22392;-82
2024/03/23 06:56:40;;;;;;;;;;;;;;;10.26;92.31;99147.73;109931;1287;22408;-82
2024/03/23 06:59:28;;;;;;;;;;;;;;;10.29;92.55;99148.80;109948;1280;23068;-81
2024/03/23 07:02:17;;;;;;;;;;;;;;;10.31;92.45;99146.80;109857;1280;23083;-82
2024/03/23 07:05:07;;;;;;;;;;;;;;;10.34;92.51;99143.39;109935;1281;22446;-82
2024/03/23 07:07:56;;;;;;;;;;;;;;;10.39;92.66;99141.33;109914;1283;22356;-81
2024/03/23 07:10:45;;;;;;;;;;;;;;;10.45;92.70;99137.58;109931;1276;23226;-81
2024/03/23 07:13:34;;;;;;;;;;;;;;;10.53;92.78;99131.05;109932;1286;22467;-82
2024/03/23 07:16:22;;;;;;;;;;;;;;;10.63;92.79;99124.41;109900;1283;22387;-82
2024/03/23 07:19:11;;;;;;;;;;;;;;;10.71;92.63;99115.69;109925;1283;22429;-81
2024/03/23 07:22:00;;;;;;;;;;;;;;;10.81;92.48;99105.99;109911;1284;23119;-81
2024/03/23 07:24:49;;;;;;;;;;;;;;;10.90;92.32;99100.35;109908;1286;22387;-82
2024/03/23 07:27:37;;;;;;;;;;;;;;;10.99;92.23;99093.64;109932;1279;22540;-82
2024/03/23 07:30:26;;;;;;;;;;;;;;;11.07;91.89;99093.95;109917;1284;22370;-82
2024/03/23 07:33:15;;;;;;;;;;;;;;;11.14;91.71;99081.48;109934;1278;22383;-82
2024/03/23 07:36:05;;;;;;;;;;;;;;;11.22;91.39;99079.23;109927;1286;23126;-83
2024/03/23 07:38:54;;;;;;;;;;;;;;;11.30;91.34;99073.79;109904;1286;23156;-83
2024/03/23 07:41:45;;;;;;;;;;;;;;;11.39;91.11;99068.52;109943;1287;22424;-82
2024/03/23 07:44:33;;;;;;;;;;;;;;;11.49;90.66;99058.64;110037;1286;22431;-82
2024/03/23 07:47:22;;;;;;;;;;;;;;;11.58;90.66;99057.08;110070;1286;22430;-82
2024/03/23 07:50:11;;;;;;;;;;;;;;;11.67;90.39;99051.98;109999;1280;22416;-81
2024/03/23 07:53:00;;;;;;;;;;;;;;;11.78;90.36;99049.74;109997;1283;23190;-81
2024/03/23 07:55:54;;;;;;;;;;;;;;;11.88;90.42;99043.48;109985;1279;22415;-82
2024/03/23 07:58:43;;;;;;;;;;;;;;;12.05;90.24;99032.91;109987;1281;22384;-82
2024/03/23 08:01:32;;;;;;;;;;;;;;;12.18;89.64;99026.98;109977;1283;22425;-80
2024/03/23 08:04:22;;;;;;;;;;;;;;;12.34;89.68;99018.33;109966;1279;22411;-82
2024/03/23 08:07:10;;;;;;;;;;;;;;;12.51;89.38;99007.08;109999;1279;22510;-82
2024/03/23 08:10:00;;;;;;;;;;;;;;;12.65;89.02;98997.44;110016;1281;22344;-81
2024/03/23 08:12:48;;;;;;;;;;;;;;;12.77;89.00;98992.34;110001;1283;22357;-82
2024/03/23 08:15:37;;;;;;;;;;;;;;;12.87;88.07;98988.67;109973;1280;22376;-82
2024/03/23 08:18:26;;;;;;;;;;;;;;;12.95;88.04;98991.95;109963;1285;23301;-81
2024/03/23 08:21:14;;;;;;;;;;;;;;;13.04;87.71;98989.42;109961;1285;22432;-82
2024/03/23 08:24:04;;;;;;;;;;;;;;;13.12;87.60;98987.27;110007;1286;22423;-81
2024/03/23 08:26:55;;;;;;;;;;;;;;;13.17;86.87;98980.06;109979;1286;22337;-82
2024/03/23 08:29:46;;;;;;;;;;;;;;;13.24;86.62;98977.45;109988;1286;22376;-88
2024/03/23 08:32:34;;;;;;;;;;;;;;;13.29;85.75;98974.67;110037;1285;23256;-88
2024/03/23 08:35:23;;;;;;;;;;;;;;;13.33;85.62;98965.20;109987;1276;22378;-88
2024/03/23 08:38:12;;;;;;;;;;;;;;;13.37;85.13;98954.10;110005;1276;23182;-83
2024/03/23 08:41:02;;;;;;;;;;;;;;;13.39;84.58;98937.55;110006;1286;22368;-84
2024/03/23 08:43:53;;;;;;;;;;;;;;;13.39;84.47;98934.69;109940;1280;23344;-88
2024/03/23 08:46:42;;;;;;;;;;;;;;;13.40;84.53;98929.38;109962;1282;22454;-83
2024/03/23 08:49:31;;;;;;;;;;;;;;;13.44;84.43;98934.48;109915;1284;22377;-82
2024/03/23 08:52:19;;;;;;;;;;;;;;;13.54;84.43;98920.27;109925;1280;22441;-83
2024/03/23 08:55:09;;;;;;;;;;;;;;;13.64;84.49;98914.21;109936;1286;22380;-82
2024/03/23 08:57:57;;;;;;;;;;;;;;;13.80;84.73;98903.83;109945;1281;22392;-82
2024/03/23 09:00:46;;;;;;;;;;;;;;;13.94;84.20;98896.83;109900;1280;23188;-82
2024/03/23 09:03:35;;;;;;;;;;;;;;;14.00;83.01;98894.64;109937;1283;22461;-83
2024/03/23 09:06:24;;;;;;;;;;;;;;;14.02;82.39;98900.11;109922;1280;22350;-83
2024/03/23 09:09:13;;;;;;;;;;;;;;;14.02;81.81;98897.42;109915;1280;23138;-83
2024/03/23 09:12:01;;;;;;;;;;;;;;;14.01;81.27;98891.16;109927;1287;22360;-83
2024/03/23 09:14:51;;;;;;;;;;;;;;;13.98;80.97;98887.11;109937;1287;22355;-83
2024/03/23 09:17:39;;;;;;;;;;;;;;;13.94;80.75;98873.20;109941;1286;22733;-83
2024/03/23 09:20:28;;;;;;;;;;;;;;;13.91;80.31;98865.66;109945;1286;22426;-83
2024/03/23 09:23:17;;;;;;;;;;;;;;;13.88;80.30;98855.00;109920;1279;22906;-82
2024/03/23 09:26:07;;;;;;;;;;;;;;;13.83;80.00;98847.58;109946;1281;22468;-82
2024/03/23 09:28:55;;;;;;;;;;;;;;;13.78;80.09;98841.33;109915;1276;22402;-82
2024/03/23 09:31:45;;;;;;;;;;;;;;;13.75;80.07;98834.08;109917;1280;22402;-82
2024/03/23 09:34:34;;;;;;;;;;;;;;;13.74;80.08;98829.16;109892;1280;22394;-81
2024/03/23 09:37:23;;;;;;;;;;;;;;;13.75;80.40;98827.48;109941;1283;22431;-82
2024/03/23 09:40:13;;;;;;;;;;;;;;;13.76;80.51;98818.52;109894;1280;22404;-82
2024/03/23 09:43:01;;;;;;;;;;;;;;;13.78;80.30;98815.26;109900;1286;22941;-83
2024/03/23 09:45:51;;;;;;;;;;;;;;;13.79;80.01;98810.81;109927;1283;23119;-83
2024/03/23 09:48:40;;;;;;;;;;;;;;;13.79;79.60;98798.92;109932;1283;23042;-83
2024/03/23 09:51:28;;;;;;;;;;;;;;;13.81;79.71;98791.92;109816;1279;22402;-83
2024/03/23 09:54:18;;;;;;;;;;;;;;;13.91;80.22;98781.38;109931;1286;22434;-83
2024/03/23 09:57:06;;;;;;;;;;;;;;;14.09;80.30;98777.70;109936;1280;22361;-86
2024/03/23 09:59:57;;;;;;;;;;;;;;;14.23;79.75;98771.00;109953;1287;22442;-84
2024/03/23 10:02:46;;;;;;;;;;;;;;;14.38;79.55;98759.26;109931;1287;22416;-84
2024/03/23 10:05:34;;;;;;;;;;;;;;;14.55;78.72;98751.70;109943;1287;22407;-84
2024/03/23 10:08:23;;;;;;;;;;;;;;;14.71;78.47;98741.52;109929;1280;23172;-83
2024/03/23 10:11:16;;;;;;;;;;;;;;;14.77;77.78;98737.04;109925;1279;22949;-84
2024/03/23 10:14:05;;;;;;;;;;;;;;;14.80;78.18;98732.63;109958;1287;22358;-83
2024/03/23 10:16:54;;;;;;;;;;;;;;;14.89;78.35;98725.28;109941;1285;22410;-85
2024/03/23 10:19:43;;;;;;;;;;;;;;;15.00;78.05;98718.33;109945;1283;23094;-90
2024/03/23 10:22:37;;;;;;;;;;;;;;;15.10;78.30;98716.52;110088;1279;23237;-88
2024/03/23 10:25:27;;;;;;;;;;;;;;;15.18;77.65;98710.45;109903;1286;22467;-89
2024/03/23 10:28:17;;;;;;;;;;;;;;;15.24;77.58;98706.02;109884;1292;22464;-88
2024/03/23 10:31:12;;;;;;;;;;;;;;;15.32;77.42;98699.88;109970;1284;22355;-88
2024/03/23 10:34:01;;;;;;;;;;;;;;;15.47;77.33;98693.55;109870;1289;22836;-88
2024/03/23 10:36:56;;;;;;;;;;;;;;;15.67;77.10;98692.98;109989;1284;22365;-88
2024/03/23 10:42:19;;;;;;;;;;;;;;;15.99;76.63;98687.67;107866;1293;541971;31
2024/03/23 10:45:24;;;;;;;;;;;;;;;16.15;76.05;98682.20;110138;1270;22558;-86
2024/03/23 10:48:17;;;;;;;;;;;;;;;16.32;75.59;98671.85;109803;1280;22651;-87
2024/03/23 10:51:08;;;;;;;;;;;;;;;16.46;75.20;98667.80;110210;1280;22550;-87
2024/03/23 10:54:06;;;;;;;;;;;;;;;16.61;74.72;98664.98;110245;1264;22686;31
2024/03/23 10:57:03;;;;;;;;;;;;;;;16.71;74.51;98662.55;111045;1257;197435;31
2024/03/23 10:59:54;;;;;;;;;;;;;;;16.78;74.41;98656.98;111680;1250;22498;-87
2024/03/23 11:02:48;;;;;;;;;;;;;;;16.83;73.68;98650.58;111739;1247;23871;31
2024/03/23 11:05:39;;;;;;;;;;;;;;;16.89;73.59;98648.81;110845;1254;22539;-88
2024/03/23 11:08:33;;;;;;;;;;;;;;;16.91;72.97;98634.95;111015;1268;23191;-89
2024/03/23 11:11:23;;;;;;;;;;;;;;;16.92;72.98;98630.52;109979;1270;22505;-85
2024/03/23 11:14:23;;;;;;;;;;;;;;;16.91;72.13;98626.15;108941;1271;22629;-87
2024/03/23 11:17:12;;;;;;;;;;;;;;;16.87;70.45;98619.04;109052;1272;22850;-85
2024/03/23 11:20:01;;;;;;;;;;;;;;;16.81;70.43;98618.40;110169;1270;22664;-86
2024/03/23 11:22:52;;;;;;;;;;;;;;;16.78;70.20;98616.36;109622;1270;22642;-88
2024/03/23 11:25:42;;;;;;;;;;;;;;;16.74;69.85;98607.94;109200;1272;22548;-81
2024/03/23 11:28:33;;;;;;;;;;;;;;;16.70;69.99;98604.73;108152;1258;25471;-87
2024/03/23 11:31:27;;;;;;;;;;;;;;;16.66;69.34;98607.51;107890;1268;22504;-86
2024/03/23 11:34:18;;;;;;;;;;;;;;;16.63;69.01;98602.51;107777;1263;22517;-81
2024/03/23 11:37:07;;;;;;;;;;;;;;;16.63;68.76;98594.61;107849;1265;22534;-82
2024/03/23 11:39:56;;;;;;;;;;;;;;;16.68;68.85;98585.98;107832;1270;22977;-79
2024/03/23 11:42:45;;;;;;;;;;;;;;;16.75;68.80;98587.95;107942;1270;22525;-79
2024/03/23 11:45:39;;;;;;;;;;;;;;;16.81;68.58;98583.79;107864;1261;22640;-79
2024/03/23 11:48:28;;;;;;;;;;;;;;;16.87;67.63;98568.73;109478;1265;22503;-79
2024/03/23 11:51:17;;;;;;;;;;;;;;;16.89;66.17;98564.74;107940;1269;25410;-78
2024/03/23 11:54:12;;;;;;;;;;;;;;;16.87;65.79;98566.63;109196;1265;22550;-89
2024/03/23 11:57:10;;;;;;;;;;;;;;;16.83;63.87;98561.05;110419;1268;26492;-87
2024/03/23 12:00:01;;;;;;;;;;;;;;;16.80;63.60;98561.99;109563;1270;24194;-87
2024/03/23 12:02:51;;;;;;;;;;;;;;;16.75;63.30;98575.48;107947;1272;22553;-87
2024/03/23 12:05:59;;;;;;;;;;;;;;;16.68;61.54;98582.27;108948;1270;22524;-88
2024/03/23 12:08:50;;;;;;;;;;;;;;;16.59;62.28;98589.02;108977;1270;22506;-89
2024/03/23 12:11:42;;;;;;;;;;;;;;;16.51;61.84;98591.88;109474;1271;22552;-90
2024/03/23 12:14:33;;;;;;;;;;;;;;;16.44;61.77;98602.35;108626;1272;22597;-88
2024/03/23 12:17:29;;;;;;;;;;;;;;;16.37;62.24;98614.19;110221;1254;22588;-90
2024/03/23 12:20:23;;;;;;;;;;;;;;;16.24;62.88;98623.77;108287;1273;25207;-80
2024/03/23 12:23:14;;;;;;;;;;;;;;;16.07;63.16;98621.36;108452;1272;22560;-89
2024/03/23 12:26:18;;;;;;;;;;;;;;;15.96;63.92;98621.29;109015;1270;22492;-90
2024/03/23 12:29:41;;;;;;;;;;;;;;;15.86;63.50;98615.68;111053;1242;22780;31
2024/03/23 12:33:11;;;;;;;;;;;;;;;15.79;64.04;98611.73;111277;1267;22755;31
2024/03/23 12:40:17;;;;;;;;;;;;;;;15.70;65.02;98616.48;111477;1255;22481;31
2024/03/23 12:43:58;;;;;;;;;;;;;;;15.59;64.99;98605.65;111474;1253;22481;-89
2024/03/23 12:46:50;;;;;;;;;;;;;;;15.51;65.15;98589.55;109477;1275;23688;-91
2024/03/23 12:50:14;;;;;;;;;;;;;;;15.45;64.97;98573.35;111215;1268;22480;31
2024/03/23 12:53:55;;;;;;;;;;;;;;;15.39;65.19;98598.67;111071;1269;22426;31
2024/03/23 12:57:26;;;;;;;;;;;;;;;15.35;64.61;98616.27;111109;1256;22702;-90
2024/03/23 13:01:06;;;;;;;;;;;;;;;15.32;63.87;98609.09;110471;1257;22633;-90
2024/03/23 13:04:37;;;;;;;;;;;;;;;15.31;61.72;98636.26;111409;1257;22542;-88
2024/03/23 13:08:23;;;;;;;;;;;;;;;15.31;61.95;98632.38;110353;1253;22565;31
2024/03/23 13:12:20;;;;;;;;;;;;;;;15.30;61.24;98638.52;110716;1271;22583;-91
2024/03/23 13:19:41;;;;;;;;;;;;;;;15.15;60.24;98719.42;110109;1257;22573;-85
2024/03/23 13:26:03;;;;;;;;;;;;;;;14.43;60.69;98733.79;110239;1256;22661;-87
2024/03/23 13:29:07;;;;;;;;;;;;;;;14.11;61.80;98731.23;110879;1268;22385;-88
2024/03/23 13:32:14;;;;;;;;;;;;;;;13.85;62.64;98739.81;110979;1257;22447;-89
2024/03/23 13:35:10;;;;;;;;;;;;;;;13.57;63.00;98741.90;110561;1260;22592;-88
2024/03/23 13:38:12;;;;;;;;;;;;;;;13.32;63.90;98747.41;110116;1269;23793;-88
2024/03/23 13:42:27;;;;;;;;;;;;;;;13.03;64.75;98764.48;110724;1257;22555;-88
2024/03/23 13:46:04;;;;;;;;;;;;;;;12.78;65.90;98777.36;110702;1267;22687;-88
2024/03/23 13:49:28;;;;;;;;;;;;;;;12.54;66.27;98789.52;110511;1271;22576;-89
2024/03/23 13:53:45;;;;;;;;;;;;;;;12.34;66.57;98796.08;110560;1273;23037;-91
2024/03/23 13:57:01;;;;;;;;;;;;;;;12.26;66.60;98809.89;110645;1268;22592;-92
2024/03/23 14:01:12;;;;;;;;;;;;;;;12.18;66.82;98828.44;110628;1271;23373;-91
2024/03/23 14:05:11;;;;;;;;;;;;;;;12.02;67.82;98849.75;110596;1269;22689;-90
2024/03/23 14:08:23;;;;;;;;;;;;;;;11.80;67.38;98861.38;110664;1268;22612;-81
2024/03/23 14:11:15;;;;;;;;;;;;;;;11.60;67.40;98876.91;110496;1269;22525;-89
2024/03/23 14:15:24;;;;;;;;;;;;;;;11.29;68.07;98868.98;111250;1257;22481;31
2024/03/23 14:18:40;;;;;;;;;;;;;;;11.08;68.44;98910.52;111282;1253;22515;-90
2024/03/23 14:22:19;;;;;;;;;;;;;;;10.86;69.03;98944.32;111040;1252;22974;31
2024/03/23 14:25:38;;;;;;;;;;;;;;;10.57;68.96;98962.80;110972;1270;22455;-81
2024/03/23 14:28:30;;;;;;;;;;;;;;;10.44;68.99;98963.38;110826;1267;22414;-87
2024/03/23 14:31:23;;;;;;;;;;;;;;;10.35;68.92;98971.70;110813;1271;22421;-88
2024/03/23 14:34:20;;;;;;;;;;;;;;;10.22;69.29;98982.65;110936;1267;23070;-87
2024/03/23 14:37:24;;;;;;;;;;;;;;;10.05;69.47;98998.03;110766;1272;22471;-87
2024/03/23 14:40:17;;;;;;;;;;;;;;;9.81;70.68;99018.31;110767;1272;22361;-87
2024/03/23 14:43:08;;;;;;;;;;;;;;;9.45;71.41;99040.90;110759;1267;23250;-88
2024/03/23 14:46:08;;;;;;;;;;;;;;;9.22;71.21;99043.52;110778;1270;22523;-85
2024/03/23 14:48:59;;;;;;;;;;;;;;;9.08;71.07;99050.37;110799;1273;22407;-86
2024/03/23 14:51:50;;;;;;;;;;;;;;;8.95;71.09;99049.48;110833;1266;23193;-86
2024/03/23 14:54:41;;;;;;;;;;;;;;;8.80;71.29;99055.81;110732;1274;22349;-85
2024/03/23 14:57:32;;;;;;;;;;;;;;;8.73;71.37;99060.83;110800;1254;22401;-87
2024/03/23 15:00:23;;;;;;;;;;;;;;;8.66;71.26;99087.42;110807;1266;22390;-86
2024/03/23 15:03:13;;;;;;;;;;;;;;;8.50;71.52;99072.21;110694;1266;23275;-86
2024/03/23 15:06:02;;;;;;;;;;;;;;;8.35;72.09;99076.98;110727;1274;22334;-85
2024/03/23 15:08:52;;;;;;;;;;;;;;;8.28;72.42;99083.14;110837;1272;22369;-88
2024/03/23 15:11:56;;;;;;;;;;;;;;;8.27;72.43;99087.84;110746;1272;23100;-88
2024/03/23 15:14:45;;;;;;;;;;;;;;;8.24;72.38;99083.53;110774;1274;22458;-84